Springfield, Idaho
Current Conditions -  °F | °C
As of 3:13 AM on Thursday 29 Jan 2015 (Local Time) from KPIH Reporting Station
Haze Haze  
Wind Chill: 33°   Ceiling: 700
Heat Index: 33°   Visibility: 3mi
Dew Point: 33°   Wind: 3mph
Humidity: 100%   Direction: 360°N
Pressure: 30.45"   Gusts: NA
Location:  43.08°N, 112.68°W
Report Text: KPIH 291013Z AUTO 36003KT 3SM BR BKN007 OVC023 01/01 A3045 RMK AO2 CIG 004V010 T00060006
Loading
Personal Weather Stations






























Interactive Weather Map New forecast layout! Learn more

10-Day Weather Forecast

Advertisements
Track Severe Weather on mobile